Time;durP1;ratioP1;P1;durP2;ratioP2;P2;SDS_P1;SDS_P2;PMS_P1;PMS_P2;Temp;Humidity;BMP_temperature;BMP_pressure;BME280_temperature;BME280_humidity;BME280_pressure;Samples;Min_cycle;Max_cycle;Signal;HPM_P1;HPM_P2
2023/11/14 00:00:48;;;;;;;1.80;1.30;;;;;;;5.68;77.85;97952.34;6210917;23;20024;-93
2023/11/14 00:03:17;;;;;;;0.95;0.90;;;;;;;5.49;78.37;97920.06;6160579;23;20020;-92
2023/11/14 00:05:47;;;;;;;1.10;0.90;;;;;;;5.23;77.71;97893.69;6208791;23;20012;-94
2023/11/14 00:08:14;;;;;;;1.17;1.08;;;;;;;5.18;77.82;97901.94;6183514;23;20024;-92
2023/11/14 00:10:43;;;;;;;1.05;0.95;;;;;;;5.32;78.97;97937.84;6233601;23;20020;-92
2023/11/14 00:13:10;;;;;;;0.80;0.80;;;;;;;5.14;79.67;97904.47;6217554;22;20030;-91
2023/11/14 00:15:36;;;;;;;1.27;0.95;;;;;;;5.27;79.48;97938.00;6215262;22;20020;-92
2023/11/14 00:18:02;;;;;;;1.27;1.10;;;;;;;4.97;79.41;97923.34;6239315;22;20035;-92
2023/11/14 00:20:28;;;;;;;0.80;0.80;;;;;;;4.88;78.10;97917.06;6212623;22;20015;-94
2023/11/14 00:22:54;;;;;;;1.55;1.05;;;;;;;4.89;78.21;97908.63;6214371;22;20031;-92
2023/11/14 00:25:20;;;;;;;1.33;0.85;;;;;;;5.00;77.98;97946.28;6239556;22;20254;-92
2023/11/14 00:27:48;;;;;;;0.88;0.88;;;;;;;4.93;78.53;97933.19;6264135;22;20026;-91
2023/11/14 00:30:18;;;;;;;1.58;0.90;;;;;;;5.04;78.42;97941.88;6241116;22;20011;-91
2023/11/14 00:32:50;;;;;;;0.90;0.85;;;;;;;5.33;78.44;97976.56;6190361;22;20041;-91
2023/11/14 00:35:16;;;;;;;2.78;1.00;;;;;;;4.90;77.83;97904.00;6238758;22;20020;-93
2023/11/14 00:37:42;;;;;;;0.98;0.95;;;;;;;4.91;77.97;97903.72;6215488;22;20016;-91
2023/11/14 00:40:34;;;;;;;0.80;0.80;;;;;;;5.30;77.95;97964.47;6264873;22;20491;-93
2023/11/14 00:43:01;;;;;;;1.02;0.90;;;;;;;5.05;77.96;97929.91;6215964;22;20019;-94
2023/11/14 00:45:28;;;;;;;1.83;1.10;;;;;;;4.90;78.10;97890.47;6217023;22;20024;-92
2023/11/14 00:51:10;;;;;;;2.92;1.30;;;;;;;4.91;78.10;97902.94;6159553;23;20434;-92
2023/11/14 00:54:09;;;;;;;1.02;0.80;;;;;;;4.85;76.79;97904.16;6178889;23;20039;-93
2023/11/14 00:56:41;;;;;;;1.55;0.82;;;;;;;4.55;77.20;97901.09;6122363;23;20023;-96
2023/11/14 00:59:08;;;;;;;0.77;0.77;;;;;;;5.02;77.87;97960.31;6174501;23;20029;-92
2023/11/14 01:01:34;;;;;;;;;;;;;;;5.08;78.57;97978.03;6149663;23;20017;-91
2023/11/14 01:04:00;;;;;;;0.70;0.70;;;;;;;4.63;78.45;97924.72;6146364;23;19982;-91
2023/11/14 01:06:27;;;;;;;2.07;0.70;;;;;;;4.74;78.86;97927.19;6173298;23;20021;-93
2023/11/14 01:08:55;;;;;;;0.60;0.60;;;;;;;4.88;77.90;97941.44;6147926;23;20024;-93
2023/11/14 01:11:23;;;;;;;0.80;0.75;;;;;;;4.72;78.22;97943.72;6147492;23;20021;-91
2023/11/14 01:14:14;;;;;;;1.15;0.93;;;;;;;5.05;79.15;97970.53;6125109;23;20036;-91
2023/11/14 01:16:40;;;;;;;1.52;0.70;;;;;;;4.82;78.94;97948.09;6148094;23;20025;-92
2023/11/14 01:19:12;;;;;;;2.28;0.95;;;;;;;4.47;78.85;97872.09;6177442;23;20059;-92
2023/11/14 01:21:38;;;;;;;0.60;0.60;;;;;;;4.81;78.40;97936.47;6197513;22;20011;-92
2023/11/14 01:24:04;;;;;;;0.70;0.70;;;;;;;5.08;78.46;97980.75;6240518;22;20004;-89
2023/11/14 01:26:35;;;;;;;1.27;0.80;;;;;;;4.48;79.24;97876.41;6215558;22;20023;-94
2023/11/14 01:29:02;;;;;;;0.60;0.60;;;;;;;4.59;78.33;97917.53;6238785;22;20457;-92
2023/11/14 01:31:34;;;;;;;1.00;0.80;;;;;;;4.36;78.50;97890.47;6215232;22;20019;-92
2023/11/14 01:34:07;;;;;;;0.60;0.60;;;;;;;4.34;78.84;97897.28;6240511;22;20043;-92
2023/11/14 01:36:35;;;;;;;0.70;0.70;;;;;;;4.20;78.51;97878.41;6190610;22;20015;-90
2023/11/14 01:39:01;;;;;;;0.70;0.70;;;;;;;4.51;78.93;97924.47;6238394;22;20098;-92
2023/11/14 01:41:28;;;;;;;0.75;0.70;;;;;;;4.25;78.48;97872.88;6213415;22;20469;-92
2023/11/14 01:43:54;;;;;;;0.68;0.68;;;;;;;4.35;78.94;97886.16;6241327;22;20049;-94
2023/11/14 01:46:21;;;;;;;0.70;0.70;;;;;;;4.50;78.64;97922.06;6216200;22;20106;-91
2023/11/14 01:48:48;;;;;;;;;;;;;;;4.96;78.83;97978.59;6216873;22;20019;-90
2023/11/14 01:51:18;;;;;;;;;;;;;;;4.85;78.88;97986.19;6242480;22;19914;-90
2023/11/14 01:54:06;;;;;;;2.65;0.95;;;;;;;4.78;79.25;97974.97;6240967;22;20345;-93
2023/11/14 01:56:33;;;;;;;0.60;0.60;;;;;;;4.86;79.45;97986.97;6243978;22;20012;-91
2023/11/14 01:59:00;;;;;;;0.70;0.70;;;;;;;4.71;79.67;97961.09;6179600;22;20030;-94
2023/11/14 02:01:26;;;;;;;0.63;0.57;;;;;;;4.46;79.33;97921.88;6239687;22;20469;-89
2023/11/14 02:03:52;;;;;;;0.60;0.60;;;;;;;4.47;79.24;97926.22;6239352;22;20023;-90
2023/11/14 02:06:19;;;;;;;1.48;0.65;;;;;;;4.19;79.40;97883.00;6241787;22;20016;-90
2023/11/14 02:08:47;;;;;;;0.57;0.57;;;;;;;4.57;79.11;97925.97;6218248;22;20022;-93
2023/11/14 02:11:14;;;;;;;0.50;0.50;;;;;;;4.46;79.51;97898.31;6219479;22;20026;-91
2023/11/14 02:13:45;;;;;;;2.80;0.70;;;;;;;4.66;79.23;97928.72;6215916;22;20004;-92
2023/11/14 02:16:12;;;;;;;0.65;0.65;;;;;;;4.91;79.38;97968.69;6243987;22;20069;-90
2023/11/14 02:18:39;;;;;;;0.70;0.70;;;;;;;4.70;79.67;97938.63;6214135;22;20015;-91
2023/11/14 02:21:05;;;;;;;1.17;0.90;;;;;;;5.02;79.73;97980.06;6239700;22;20015;-95
2023/11/14 02:23:43;;;;;;;0.93;0.82;;;;;;;5.01;79.62;97956.03;6216209;22;20157;-89
2023/11/14 02:26:13;;;;;;;3.00;0.80;;;;;;;4.91;79.72;97952.47;6243037;22;20015;-91
2023/11/14 02:28:40;;;;;;;0.77;0.77;;;;;;;4.93;79.79;97944.84;6246999;22;20012;-89
2023/11/14 02:31:57;;;;;;;1.02;0.90;;;;;;;5.11;79.62;97989.06;6195785;22;20019;-93
2023/11/14 02:34:23;;;;;;;1.02;0.95;;;;;;;4.53;80.10;97880.88;6208750;23;20023;-91
2023/11/14 02:36:51;;;;;;;2.10;1.42;;;;;;;5.05;80.11;97959.69;6210778;22;20035;-91
2023/11/14 02:39:42;;;;;;;0.80;0.80;;;;;;;4.95;79.64;97922.84;6301818;22;20074;-95
2023/11/14 02:42:18;;;;;;;1.10;0.90;;;;;;;4.91;79.57;97924.59;6230458;23;20028;-91
2023/11/14 02:44:45;;;;;;;0.80;0.80;;;;;;;4.88;79.70;97927.91;6159855;23;20020;-91
2023/11/14 02:47:11;;;;;;;1.35;1.20;;;;;;;5.23;79.89;97969.53;6157127;23;20042;-92
2023/11/14 02:50:36;;;;;;;1.10;1.00;;;;;;;5.40;79.88;97980.47;6160831;23;20017;-90
2023/11/14 02:53:04;;;;;;;;;;;;;;;5.39;79.92;97983.47;6234951;23;20016;-91
2023/11/14 02:55:31;;;;;;;1.10;1.00;;;;;;;4.99;80.18;97934.66;6161576;23;19918;-90
2023/11/14 02:57:57;;;;;;;1.20;1.10;;;;;;;4.92;80.50;97942.41;6158890;23;20016;-92
2023/11/14 03:00:25;;;;;;;2.63;1.00;;;;;;;4.64;80.92;97898.47;6161261;23;20027;-91
2023/11/14 03:02:51;;;;;;;1.10;1.05;;;;;;;5.04;81.01;97968.94;6182473;23;20055;-90
2023/11/14 03:05:30;;;;;;;3.35;1.15;;;;;;;4.88;81.25;97938.75;6236090;23;20067;-93
2023/11/14 03:07:57;;;;;;;1.60;1.23;;;;;;;4.95;81.20;97950.72;6160031;23;20020;-90
2023/11/14 03:10:27;;;;;;;6.68;1.55;;;;;;;5.15;81.21;97962.16;6185778;23;20005;-90
2023/11/14 03:13:53;;;;;;;1.95;1.35;;;;;;;5.39;81.34;97995.09;6160144;23;20029;-91
2023/11/14 03:16:19;;;;;;;1.20;1.10;;;;;;;5.43;80.86;97984.47;6161033;23;20095;-90
2023/11/14 03:18:58;;;;;;;2.10;1.50;;;;;;;5.05;80.91;97946.16;6214194;23;20016;-91
2023/11/14 03:22:16;;;;;;;2.80;1.23;;;;;;;5.45;81.28;97987.66;6232895;22;20092;-94
2023/11/14 03:24:43;;;;;;;1.85;1.40;;;;;;;5.16;81.00;97937.44;6250005;22;20021;-91
2023/11/14 03:27:09;;;;;;;1.50;1.25;;;;;;;5.42;80.80;97953.03;6249548;22;20015;-91
2023/11/14 03:29:35;;;;;;;1.30;1.20;;;;;;;5.18;80.19;97923.59;6276065;22;20050;-95
2023/11/14 03:32:02;;;;;;;2.38;1.45;;;;;;;5.58;80.44;97988.66;6251995;22;20050;-91
2023/11/14 03:35:19;;;;;;;3.05;1.30;;;;;;;5.68;80.68;97995.72;6278578;22;20019;-90
2023/11/14 03:38:46;;;;;;;1.95;1.30;;;;;;;5.68;80.27;97996.50;6300558;22;20010;-93
2023/11/14 03:41:40;;;;;;;1.33;1.23;;;;;;;5.33;80.08;97942.19;6251006;22;20023;-92
2023/11/14 03:44:07;;;;;;;1.45;1.30;;;;;;;5.33;79.51;97938.66;6251578;22;20014;-90
2023/11/14 03:46:37;;;;;;;1.48;1.38;;;;;;;5.34;79.66;97943.75;6277866;22;20019;-92
2023/11/14 03:49:05;;;;;;;1.40;1.17;;;;;;;5.52;79.80;97954.66;6251342;22;20015;-91
2023/11/14 03:51:32;;;;;;;1.65;1.17;;;;;;;5.41;79.84;97938.69;6275013;22;20074;-91
2023/11/14 03:54:20;;;;;;;1.80;1.30;;;;;;;5.87;79.70;98001.69;6256048;22;20074;-91
2023/11/14 03:56:46;;;;;;;1.13;1.08;;;;;;;5.24;79.20;97906.13;6226595;23;20024;-91
2023/11/14 03:59:15;;;;;;;1.13;1.00;;;;;;;5.55;79.28;97971.09;6193834;23;20466;-92
2023/11/14 04:01:41;;;;;;;2.38;1.25;;;;;;;5.54;79.62;97963.31;6218626;23;20000;-92
2023/11/14 04:36:47;;;;;;;1.05;0.95;;;;;;;5.57;78.57;98003.34;6299695;22;20023;-92
2023/11/14 04:44:59;;;;;;;1.33;1.00;;;;;;;5.12;79.17;97924.84;6304167;22;20008;-91
2023/11/14 05:22:39;;;;;;;1.23;1.02;;;;;;;5.03;79.21;97964.63;6297044;22;20023;-90
2023/11/14 05:57:22;;;;;;;2.10;1.23;;;;;;;5.16;79.05;98031.47;6275886;22;20030;-92
2023/11/14 06:05:45;;;;;;;1.48;1.27;;;;;;;5.22;79.60;98037.56;6261597;22;19999;-92
2023/11/14 06:23:43;;;;;;;1.85;1.33;;;;;;;5.05;79.70;98027.41;6267506;22;20070;-90
2023/11/14 06:26:45;;;;;;;1.73;1.35;;;;;;;4.81;80.50;97993.31;6274773;22;20016;-91
2023/11/14 06:29:21;;;;;;;2.13;1.52;;;;;;;5.00;80.73;97992.31;6213143;23;20493;-92
2023/11/14 06:59:20;;;;;;;2.30;1.80;;;;;;;5.25;80.16;97988.97;6290037;22;20019;-91
2023/11/14 07:11:16;;;;;;;1.90;1.60;;;;;;;5.72;78.49;98075.31;6302911;22;20008;-92
2023/11/14 07:14:08;;;;;;;2.67;1.38;;;;;;;5.33;79.19;98023.47;6258528;22;20018;-92
2023/11/14 07:16:37;;;;;;;5.68;1.70;;;;;;;5.16;79.35;97988.13;6278362;22;20045;-92
2023/11/14 07:19:50;;;;;;;2.63;1.90;;;;;;;5.85;79.92;98077.91;6202546;22;20020;-91
2023/11/14 07:22:42;;;;;;;2.35;1.70;;;;;;;5.93;79.27;98083.72;6298292;22;20011;-92
2023/11/14 07:25:43;;;;;;;1.83;1.65;;;;;;;5.38;79.35;98000.84;6315271;22;19999;-91
2023/11/14 07:28:12;;;;;;;3.30;2.05;;;;;;;5.88;79.65;98050.19;6234962;22;20030;-89
2023/11/14 07:30:40;;;;;;;;;;;;;;;6.03;79.44;98081.56;6279663;22;20037;-90
2023/11/14 07:33:09;;;;;;;3.55;2.60;;;;;;;5.48;78.96;97992.44;6242823;22;19916;-92
2023/11/14 19:18:54;;;;;;;7.80;4.57;;;;;;;4.80;76.61;98120.84;6302305;22;20015;-90
2023/11/14 19:26:30;;;;;;;7.95;4.70;;;;;;;5.14;76.25;98188.09;6151426;23;20052;-92
2023/11/14 19:29:58;;;;;;;7.88;4.80;;;;;;;5.23;76.79;98191.69;6124688;23;20020;-89
2023/11/14 19:32:29;;;;;;;7.70;4.63;;;;;;;4.99;76.37;98155.91;6100291;23;20444;-89
2023/11/14 19:35:14;;;;;;;9.88;5.35;;;;;;;4.59;76.08;98090.72;6092512;23;20014;-90
2023/11/14 19:39:08;;;;;;;9.98;5.43;;;;;;;5.27;76.00;98181.84;6263300;22;20025;-92
2023/11/14 19:47:58;;;;;;;7.00;4.07;;;;;;;4.88;75.65;98129.06;6332885;22;20011;-91
2023/11/14 19:51:02;;;;;;;9.95;5.22;;;;;;;4.84;75.93;98117.25;6287820;22;20014;-90
2023/11/14 19:53:57;;;;;;;8.15;5.15;;;;;;;4.73;75.93;98088.78;6259150;22;20026;-91
2023/11/14 19:57:16;;;;;;;9.18;4.75;;;;;;;5.27;76.13;98167.50;6309596;22;20013;-90
2023/11/14 20:33:41;;;;;;;8.27;4.78;;;;;;;4.69;75.52;98091.28;6302820;22;20037;-93
2023/11/14 21:05:19;;;;;;;8.07;4.43;;;;;;;5.62;74.23;98153.06;6327790;22;20021;-89
2023/11/14 21:07:48;;;;;;;13.13;5.20;;;;;;;5.47;73.73;98130.97;6252318;22;20022;-89
2023/11/14 21:10:43;;;;;;;8.90;4.85;;;;;;;5.54;73.49;98140.28;6275352;22;20026;-88
2023/11/14 21:13:11;;;;;;;7.32;4.65;;;;;;;5.63;72.90;98160.13;6170227;23;20012;-90
2023/11/14 21:20:00;;;;;;;11.65;4.78;;;;;;;5.02;73.24;98082.19;6208560;23;20378;-91
2023/11/14 21:32:03;;;;;;;7.70;4.72;;;;;;;5.35;73.74;98147.78;6296071;22;20035;-91
2023/11/14 21:35:21;;;;;;;11.95;5.72;;;;;;;5.53;74.10;98170.38;6208205;23;20013;-91
2023/11/14 21:38:13;;;;;;;12.63;4.13;;;;;;;5.19;73.66;98131.06;6159349;23;20020;-91
2023/11/14 21:52:40;;;;;;;10.38;4.47;;;;;;;5.27;74.23;98137.69;6299436;22;20019;-89
2023/11/14 22:23:31;;;;;;;9.52;5.85;;;;;;;5.03;73.87;98113.56;6322974;22;20352;-90
2023/11/14 22:26:00;;;;;;;10.13;6.13;;;;;;;4.93;74.05;98082.94;6227226;22;20074;-90
2023/11/14 22:37:14;;;;;;;9.88;6.05;;;;;;;5.54;73.93;98185.56;6299353;22;20442;-89
2023/11/14 23:06:58;;;;;;;10.40;6.13;;;;;;;5.42;73.97;98161.69;6298388;22;20081;-90
2023/11/14 23:10:22;;;;;;;12.48;7.30;;;;;;;5.67;73.51;98179.28;6173875;22;20016;-90
2023/11/14 23:12:57;;;;;;;14.30;7.07;;;;;;;5.61;73.61;98186.72;6245128;22;20027;-90
2023/11/14 23:16:00;;;;;;;13.05;7.53;;;;;;;5.21;73.76;98128.06;6235100;22;20334;-90
2023/11/14 23:25:45;;;;;;;15.70;7.88;;;;;;;5.26;74.34;98161.25;6293095;22;20092;-93
2023/11/14 23:28:12;;;;;;;14.60;7.68;;;;;;;5.31;74.19;98157.63;6252286;22;20007;-92
2023/11/14 23:41:33;;;;;;;12.55;7.15;;;;;;;5.17;73.71;98119.75;6299666;22;20018;-90
2023/11/14 23:48:41;;;;;;;14.32;8.20;;;;;;;5.21;74.01;98122.66;6311459;22;20030;-92
2023/11/14 23:51:11;;;;;;;15.85;8.13;;;;;;;5.20;74.52;98127.28;6202073;22;20080;-91
2023/11/14 23:53:40;;;;;;;20.55;8.20;;;;;;;5.46;74.49;98159.16;6276024;22;20344;-92
2023/11/14 23:56:15;;;;;;;15.23;8.70;;;;;;;4.94;74.12;98076.41;6252024;22;20393;-93
2023/11/14 23:58:44;;;;;;;18.10;9.15;;;;;;;5.01;73.72;98092.22;6274884;22;20032;-92
